sensor_id;sensor_type;location;lat;lon;timestamp;temperature;humidity
10294;DHT22;5192;50.328;7.610;2023-01-16T00:00:20;5.00;32.20
10294;DHT22;5192;50.328;7.610;2023-01-16T00:02:49;4.90;33.50
10294;DHT22;5192;50.328;7.610;2023-01-16T00:05:18;4.90;33.10
10294;DHT22;5192;50.328;7.610;2023-01-16T00:07:46;5.00;33.50
10294;DHT22;5192;50.328;7.610;2023-01-16T00:10:13;4.90;33.80
10294;DHT22;5192;50.328;7.610;2023-01-16T00:12:41;4.90;34.40
10294;DHT22;5192;50.328;7.610;2023-01-16T00:15:10;4.90;33.10
10294;DHT22;5192;50.328;7.610;2023-01-16T00:17:36;4.90;35.20
10294;DHT22;5192;50.328;7.610;2023-01-16T00:20:04;4.90;34.50
10294;DHT22;5192;50.328;7.610;2023-01-16T00:22:31;4.80;33.60
10294;DHT22;5192;50.328;7.610;2023-01-16T00:24:57;4.80;34.50
10294;DHT22;5192;50.328;7.610;2023-01-16T00:27:25;4.80;34.00
10294;DHT22;5192;50.328;7.610;2023-01-16T00:29:52;4.70;34.50
10294;DHT22;5192;50.328;7.610;2023-01-16T00:32:19;4.70;35.40
10294;DHT22;5192;50.328;7.610;2023-01-16T00:34:47;4.70;35.80
10294;DHT22;5192;50.328;7.610;2023-01-16T00:37:14;4.70;34.50
10294;DHT22;5192;50.328;7.610;2023-01-16T00:39:42;4.80;33.80
10294;DHT22;5192;50.328;7.610;2023-01-16T00:42:11;4.80;34.40
10294;DHT22;5192;50.328;7.610;2023-01-16T00:44:37;4.80;35.80
10294;DHT22;5192;50.328;7.610;2023-01-16T00:47:04;4.80;34.90
10294;DHT22;5192;50.328;7.610;2023-01-16T00:49:34;4.80;33.80
10294;DHT22;5192;50.328;7.610;2023-01-16T00:51:59;4.90;34.40
10294;DHT22;5192;50.328;7.610;2023-01-16T00:54:26;4.90;35.00
10294;DHT22;5192;50.328;7.610;2023-01-16T00:56:54;4.80;34.10
10294;DHT22;5192;50.328;7.610;2023-01-16T00:59:23;4.90;34.30
10294;DHT22;5192;50.328;7.610;2023-01-16T01:01:50;4.90;33.90
10294;DHT22;5192;50.328;7.610;2023-01-16T01:04:16;4.90;33.00
10294;DHT22;5192;50.328;7.610;2023-01-16T01:06:43;4.90;33.00
10294;DHT22;5192;50.328;7.610;2023-01-16T01:09:11;4.90;31.20
10294;DHT22;5192;50.328;7.610;2023-01-16T01:11:38;4.90;32.40
10294;DHT22;5192;50.328;7.610;2023-01-16T01:14:06;5.00;29.60
10294;DHT22;5192;50.328;7.610;2023-01-16T01:16:31;4.90;31.20
10294;DHT22;5192;50.328;7.610;2023-01-16T01:18:58;5.10;30.80
10294;DHT22;5192;50.328;7.610;2023-01-16T01:21:26;4.90;30.80
10294;DHT22;5192;50.328;7.610;2023-01-16T01:23:55;4.90;32.00
10294;DHT22;5192;50.328;7.610;2023-01-16T01:26:21;4.90;31.40
10294;DHT22;5192;50.328;7.610;2023-01-16T01:28:48;4.80;31.70
10294;DHT22;5192;50.328;7.610;2023-01-16T01:31:16;4.80;32.50
10294;DHT22;5192;50.328;7.610;2023-01-16T01:33:42;4.80;32.30
10294;DHT22;5192;50.328;7.610;2023-01-16T01:36:08;4.80;32.00
10294;DHT22;5192;50.328;7.610;2023-01-16T01:38:36;4.80;32.30
10294;DHT22;5192;50.328;7.610;2023-01-16T01:41:05;4.70;34.00
10294;DHT22;5192;50.328;7.610;2023-01-16T01:43:50;4.80;32.80
10294;DHT22;5192;50.328;7.610;2023-01-16T01:46:36;4.70;33.20
10294;DHT22;5192;50.328;7.610;2023-01-16T01:49:25;4.80;31.40
10294;DHT22;5192;50.328;7.610;2023-01-16T01:51:56;4.70;32.90
10294;DHT22;5192;50.328;7.610;2023-01-16T01:54:31;4.70;34.00
10294;DHT22;5192;50.328;7.610;2023-01-16T01:57:20;4.70;33.80
10294;DHT22;5192;50.328;7.610;2023-01-16T02:00:04;4.70;32.80
10294;DHT22;5192;50.328;7.610;2023-01-16T02:02:37;4.70;34.10
10294;DHT22;5192;50.328;7.610;2023-01-16T02:05:09;4.60;34.00
10294;DHT22;5192;50.328;7.610;2023-01-16T02:07:39;4.60;31.70
10294;DHT22;5192;50.328;7.610;2023-01-16T02:13:11;4.70;33.90
10294;DHT22;5192;50.328;7.610;2023-01-16T02:15:38;4.70;35.30
10294;DHT22;5192;50.328;7.610;2023-01-16T02:18:30;4.70;39.20
10294;DHT22;5192;50.328;7.610;2023-01-16T02:24:26;4.50;44.80
10294;DHT22;5192;50.328;7.610;2023-01-16T02:36:31;4.40;50.80
10294;DHT22;5192;50.328;7.610;2023-01-16T02:45:29;4.30;48.80
10294;DHT22;5192;50.328;7.610;2023-01-16T02:48:29;4.30;46.60
10294;DHT22;5192;50.328;7.610;2023-01-16T02:54:31;4.40;46.60
10294;DHT22;5192;50.328;7.610;2023-01-16T02:57:41;4.40;43.10
10294;DHT22;5192;50.328;7.610;2023-01-16T03:00:12;4.30;44.10
10294;DHT22;5192;50.328;7.610;2023-01-16T03:02:43;4.30;43.30
10294;DHT22;5192;50.328;7.610;2023-01-16T03:05:10;4.30;44.10
10294;DHT22;5192;50.328;7.610;2023-01-16T03:10:30;4.30;46.00
10294;DHT22;5192;50.328;7.610;2023-01-16T03:19:17;4.10;47.40
10294;DHT22;5192;50.328;7.610;2023-01-16T03:22:15;4.10;49.70
10294;DHT22;5192;50.328;7.610;2023-01-16T03:34:12;4.00;50.60
10294;DHT22;5192;50.328;7.610;2023-01-16T03:37:07;4.10;52.10
10294;DHT22;5192;50.328;7.610;2023-01-16T03:39:44;4.00;50.90
10294;DHT22;5192;50.328;7.610;2023-01-16T03:42:24;4.00;49.50
10294;DHT22;5192;50.328;7.610;2023-01-16T03:44:56;4.00;50.80
10294;DHT22;5192;50.328;7.610;2023-01-16T03:47:33;4.10;52.10
10294;DHT22;5192;50.328;7.610;2023-01-16T03:50:11;4.00;51.40
10294;DHT22;5192;50.328;7.610;2023-01-16T03:52:51;4.00;50.50
10294;DHT22;5192;50.328;7.610;2023-01-16T03:55:39;4.00;51.90
10294;DHT22;5192;50.328;7.610;2023-01-16T03:58:41;4.00;51.20
10294;DHT22;5192;50.328;7.610;2023-01-16T04:01:49;3.90;51.50
10294;DHT22;5192;50.328;7.610;2023-01-16T04:05:26;4.00;50.30
10294;DHT22;5192;50.328;7.610;2023-01-16T04:10:38;3.90;48.70
10294;DHT22;5192;50.328;7.610;2023-01-16T04:13:09;3.90;47.60
10294;DHT22;5192;50.328;7.610;2023-01-16T04:15:42;4.00;47.00
10294;DHT22;5192;50.328;7.610;2023-01-16T04:18:11;4.00;47.40
10294;DHT22;5192;50.328;7.610;2023-01-16T04:20:39;4.00;46.40
10294;DHT22;5192;50.328;7.610;2023-01-16T04:23:06;4.00;44.60
10294;DHT22;5192;50.328;7.610;2023-01-16T04:25:34;4.00;45.30
10294;DHT22;5192;50.328;7.610;2023-01-16T04:28:00;4.00;43.60
10294;DHT22;5192;50.328;7.610;2023-01-16T04:30:27;4.00;43.60
10294;DHT22;5192;50.328;7.610;2023-01-16T04:32:54;4.00;43.20
10294;DHT22;5192;50.328;7.610;2023-01-16T04:35:21;4.00;43.10
10294;DHT22;5192;50.328;7.610;2023-01-16T04:37:48;4.00;43.60
10294;DHT22;5192;50.328;7.610;2023-01-16T04:40:15;4.10;42.30
10294;DHT22;5192;50.328;7.610;2023-01-16T04:42:43;4.10;42.90
10294;DHT22;5192;50.328;7.610;2023-01-16T04:45:11;4.10;43.00
10294;DHT22;5192;50.328;7.610;2023-01-16T04:47:39;4.20;41.50
10294;DHT22;5192;50.328;7.610;2023-01-16T04:50:06;4.20;40.60
10294;DHT22;5192;50.328;7.610;2023-01-16T04:52:35;4.30;39.10
10294;DHT22;5192;50.328;7.610;2023-01-16T04:55:02;4.30;38.30
10294;DHT22;5192;50.328;7.610;2023-01-16T04:57:29;4.30;37.20
10294;DHT22;5192;50.328;7.610;2023-01-16T04:59:56;4.30;36.80
10294;DHT22;5192;50.328;7.610;2023-01-16T05:02:24;4.30;37.90
10294;DHT22;5192;50.328;7.610;2023-01-16T05:04:52;4.40;36.80
10294;DHT22;5192;50.328;7.610;2023-01-16T05:07:18;4.40;36.60
10294;DHT22;5192;50.328;7.610;2023-01-16T05:09:46;4.40;36.20
10294;DHT22;5192;50.328;7.610;2023-01-16T05:12:14;4.40;34.50
10294;DHT22;5192;50.328;7.610;2023-01-16T05:14:40;4.40;33.80
10294;DHT22;5192;50.328;7.610;2023-01-16T05:17:07;4.50;33.30
10294;DHT22;5192;50.328;7.610;2023-01-16T05:19:34;4.60;31.70
10294;DHT22;5192;50.328;7.610;2023-01-16T05:22:01;4.60;31.70
10294;DHT22;5192;50.328;7.610;2023-01-16T05:24:29;4.60;30.00
10294;DHT22;5192;50.328;7.610;2023-01-16T05:26:56;4.60;30.00
10294;DHT22;5192;50.328;7.610;2023-01-16T05:29:24;4.60;28.40
10294;DHT22;5192;50.328;7.610;2023-01-16T05:31:52;4.60;29.20
10294;DHT22;5192;50.328;7.610;2023-01-16T05:34:19;4.70;27.70
10294;DHT22;5192;50.328;7.610;2023-01-16T05:36:45;4.70;27.90
10294;DHT22;5192;50.328;7.610;2023-01-16T05:39:12;4.70;28.60
10294;DHT22;5192;50.328;7.610;2023-01-16T05:41:39;4.70;27.20
10294;DHT22;5192;50.328;7.610;2023-01-16T05:44:05;4.80;27.70
10294;DHT22;5192;50.328;7.610;2023-01-16T05:46:33;4.80;26.80
10294;DHT22;5192;50.328;7.610;2023-01-16T05:49:03;5.00;25.60
10294;DHT22;5192;50.328;7.610;2023-01-16T05:51:31;4.80;27.00
10294;DHT22;5192;50.328;7.610;2023-01-16T05:53:58;4.80;27.40
10294;DHT22;5192;50.328;7.610;2023-01-16T05:56:25;4.70;27.90
10294;DHT22;5192;50.328;7.610;2023-01-16T05:58:53;4.70;27.50
10294;DHT22;5192;50.328;7.610;2023-01-16T06:01:21;4.70;27.90
10294;DHT22;5192;50.328;7.610;2023-01-16T06:03:46;4.70;28.50
10294;DHT22;5192;50.328;7.610;2023-01-16T06:06:13;4.80;27.70
10294;DHT22;5192;50.328;7.610;2023-01-16T06:08:40;4.80;26.70
10294;DHT22;5192;50.328;7.610;2023-01-16T06:11:08;4.80;27.60
10294;DHT22;5192;50.328;7.610;2023-01-16T06:13:34;4.80;28.60
10294;DHT22;5192;50.328;7.610;2023-01-16T06:16:03;4.70;28.40
10294;DHT22;5192;50.328;7.610;2023-01-16T06:18:29;4.70;27.20
10294;DHT22;5192;50.328;7.610;2023-01-16T06:20:57;4.70;27.90
10294;DHT22;5192;50.328;7.610;2023-01-16T06:23:25;4.70;27.70
10294;DHT22;5192;50.328;7.610;2023-01-16T06:25:52;4.70;28.10
10294;DHT22;5192;50.328;7.610;2023-01-16T06:28:20;4.70;29.30
10294;DHT22;5192;50.328;7.610;2023-01-16T06:30:51;4.70;29.30
10294;DHT22;5192;50.328;7.610;2023-01-16T06:33:18;4.70;29.20
10294;DHT22;5192;50.328;7.610;2023-01-16T06:35:46;4.80;28.20
10294;DHT22;5192;50.328;7.610;2023-01-16T06:38:13;4.80;27.40
10294;DHT22;5192;50.328;7.610;2023-01-16T06:40:41;4.80;27.10
10294;DHT22;5192;50.328;7.610;2023-01-16T06:43:11;4.80;28.50
10294;DHT22;5192;50.328;7.610;2023-01-16T06:45:38;4.80;27.70
10294;DHT22;5192;50.328;7.610;2023-01-16T06:48:07;4.80;26.70
10294;DHT22;5192;50.328;7.610;2023-01-16T06:50:35;4.80;26.30
10294;DHT22;5192;50.328;7.610;2023-01-16T06:53:04;4.80;26.20
10294;DHT22;5192;50.328;7.610;2023-01-16T06:55:31;4.80;27.20
10294;DHT22;5192;50.328;7.610;2023-01-16T06:57:57;4.80;25.70
10294;DHT22;5192;50.328;7.610;2023-01-16T07:00:24;4.70;26.10
10294;DHT22;5192;50.328;7.610;2023-01-16T07:02:55;4.70;25.80
10294;DHT22;5192;50.328;7.610;2023-01-16T07:05:22;4.80;25.70
10294;DHT22;5192;50.328;7.610;2023-01-16T07:07:53;4.80;24.60
10294;DHT22;5192;50.328;7.610;2023-01-16T07:10:19;4.80;23.70
10294;DHT22;5192;50.328;7.610;2023-01-16T07:12:46;4.90;24.30
10294;DHT22;5192;50.328;7.610;2023-01-16T07:15:12;4.90;23.30
10294;DHT22;5192;50.328;7.610;2023-01-16T07:17:58;4.90;26.00
10294;DHT22;5192;50.328;7.610;2023-01-16T07:20:51;5.00;24.40
10294;DHT22;5192;50.328;7.610;2023-01-16T07:23:37;5.00;26.30
10294;DHT22;5192;50.328;7.610;2023-01-16T07:26:07;5.00;22.20
10294;DHT22;5192;50.328;7.610;2023-01-16T07:28:35;5.00;21.30
10294;DHT22;5192;50.328;7.610;2023-01-16T07:31:03;4.90;21.00
10294;DHT22;5192;50.328;7.610;2023-01-16T07:33:31;4.90;21.20
10294;DHT22;5192;50.328;7.610;2023-01-16T07:35:59;4.90;21.20
10294;DHT22;5192;50.328;7.610;2023-01-16T07:38:26;5.00;18.20
10294;DHT22;5192;50.328;7.610;2023-01-16T07:40:52;5.00;18.00
10294;DHT22;5192;50.328;7.610;2023-01-16T07:43:18;5.00;18.30
10294;DHT22;5192;50.328;7.610;2023-01-16T07:45:45;5.10;16.60
10294;DHT22;5192;50.328;7.610;2023-01-16T07:48:24;5.00;16.40
10294;DHT22;5192;50.328;7.610;2023-01-16T07:50:57;5.00;16.10
10294;DHT22;5192;50.328;7.610;2023-01-16T07:53:26;5.00;17.50
10294;DHT22;5192;50.328;7.610;2023-01-16T07:55:55;5.00;15.50
10294;DHT22;5192;50.328;7.610;2023-01-16T07:58:21;5.00;15.90
10294;DHT22;5192;50.328;7.610;2023-01-16T08:00:52;5.00;16.50
10294;DHT22;5192;50.328;7.610;2023-01-16T08:03:18;5.00;18.00
10294;DHT22;5192;50.328;7.610;2023-01-16T08:05:45;4.90;22.60
10294;DHT22;5192;50.328;7.610;2023-01-16T08:08:12;4.70;25.10
10294;DHT22;5192;50.328;7.610;2023-01-16T08:10:40;4.60;27.90
10294;DHT22;5192;50.328;7.610;2023-01-16T08:13:06;4.40;31.80
10294;DHT22;5192;50.328;7.610;2023-01-16T08:15:33;4.40;33.10
10294;DHT22;5192;50.328;7.610;2023-01-16T08:18:00;4.20;33.60
10294;DHT22;5192;50.328;7.610;2023-01-16T08:20:28;4.10;34.20
10294;DHT22;5192;50.328;7.610;2023-01-16T08:22:57;4.10;35.70
10294;DHT22;5192;50.328;7.610;2023-01-16T08:25:24;4.00;36.50
10294;DHT22;5192;50.328;7.610;2023-01-16T08:27:52;4.00;36.30
10294;DHT22;5192;50.328;7.610;2023-01-16T08:30:17;3.90;36.80
10294;DHT22;5192;50.328;7.610;2023-01-16T08:32:45;3.90;37.50
10294;DHT22;5192;50.328;7.610;2023-01-16T08:35:11;3.90;38.20
10294;DHT22;5192;50.328;7.610;2023-01-16T08:37:45;3.80;35.90
10294;DHT22;5192;50.328;7.610;2023-01-16T08:40:13;3.80;38.00
10294;DHT22;5192;50.328;7.610;2023-01-16T08:42:40;3.80;37.40
10294;DHT22;5192;50.328;7.610;2023-01-16T08:45:26;3.70;38.00
10294;DHT22;5192;50.328;7.610;2023-01-16T08:48:12;3.70;38.00
10294;DHT22;5192;50.328;7.610;2023-01-16T08:51:01;3.70;38.00
10294;DHT22;5192;50.328;7.610;2023-01-16T08:53:55;3.70;39.80
10294;DHT22;5192;50.328;7.610;2023-01-16T08:56:25;3.70;38.40
10294;DHT22;5192;50.328;7.610;2023-01-16T08:58:55;3.70;37.70
10294;DHT22;5192;50.328;7.610;2023-01-16T09:01:23;3.60;38.40
10294;DHT22;5192;50.328;7.610;2023-01-16T09:03:48;3.70;39.10
10294;DHT22;5192;50.328;7.610;2023-01-16T09:06:15;3.60;38.00
10294;DHT22;5192;50.328;7.610;2023-01-16T09:08:44;3.60;38.80
10294;DHT22;5192;50.328;7.610;2023-01-16T09:11:11;3.60;38.00
10294;DHT22;5192;50.328;7.610;2023-01-16T09:13:58;3.60;38.20
10294;DHT22;5192;50.328;7.610;2023-01-16T09:16:28;3.60;38.70
10294;DHT22;5192;50.328;7.610;2023-01-16T09:18:55;3.60;37.70
10294;DHT22;5192;50.328;7.610;2023-01-16T09:21:20;3.60;38.20
10294;DHT22;5192;50.328;7.610;2023-01-16T09:23:51;3.60;39.00
10294;DHT22;5192;50.328;7.610;2023-01-16T09:26:19;3.60;39.30
10294;DHT22;5192;50.328;7.610;2023-01-16T09:28:46;3.60;37.60
10294;DHT22;5192;50.328;7.610;2023-01-16T09:31:14;3.60;38.60
10294;DHT22;5192;50.328;7.610;2023-01-16T09:33:41;3.60;38.00
10294;DHT22;5192;50.328;7.610;2023-01-16T09:36:10;3.60;39.00
10294;DHT22;5192;50.328;7.610;2023-01-16T09:38:37;3.60;40.60
10294;DHT22;5192;50.328;7.610;2023-01-16T09:41:04;3.60;41.30
10294;DHT22;5192;50.328;7.610;2023-01-16T09:43:36;3.60;43.40
10294;DHT22;5192;50.328;7.610;2023-01-16T09:46:27;3.50;42.50
10294;DHT22;5192;50.328;7.610;2023-01-16T09:49:25;3.60;43.40
10294;DHT22;5192;50.328;7.610;2023-01-16T09:52:14;3.50;44.70
10294;DHT22;5192;50.328;7.610;2023-01-16T09:55:06;3.50;44.40
10294;DHT22;5192;50.328;7.610;2023-01-16T09:57:56;3.60;45.80
10294;DHT22;5192;50.328;7.610;2023-01-16T10:00:43;3.50;45.80
10294;DHT22;5192;50.328;7.610;2023-01-16T10:03:09;3.60;45.20
10294;DHT22;5192;50.328;7.610;2023-01-16T10:05:47;3.60;42.80
10294;DHT22;5192;50.328;7.610;2023-01-16T10:09:04;3.60;42.90
10294;DHT22;5192;50.328;7.610;2023-01-16T10:11:57;3.70;40.90
10294;DHT22;5192;50.328;7.610;2023-01-16T10:26:28;3.70;41.50
10294;DHT22;5192;50.328;7.610;2023-01-16T10:35:12;3.80;39.80
10294;DHT22;5192;50.328;7.610;2023-01-16T10:37:43;3.80;42.30
10294;DHT22;5192;50.328;7.610;2023-01-16T10:40:28;3.80;39.80
10294;DHT22;5192;50.328;7.610;2023-01-16T10:43:12;3.90;40.20
10294;DHT22;5192;50.328;7.610;2023-01-16T10:46:07;3.80;38.50
10294;DHT22;5192;50.328;7.610;2023-01-16T10:48:57;3.90;40.40
10294;DHT22;5192;50.328;7.610;2023-01-16T10:51:42;3.90;39.20
10294;DHT22;5192;50.328;7.610;2023-01-16T10:54:10;3.90;41.10
10294;DHT22;5192;50.328;7.610;2023-01-16T10:56:40;3.90;41.80
10294;DHT22;5192;50.328;7.610;2023-01-16T10:59:11;3.90;41.20
10294;DHT22;5192;50.328;7.610;2023-01-16T11:01:40;3.90;42.10
10294;DHT22;5192;50.328;7.610;2023-01-16T11:04:10;3.90;43.00
10294;DHT22;5192;50.328;7.610;2023-01-16T11:06:38;3.80;41.20
10294;DHT22;5192;50.328;7.610;2023-01-16T11:09:17;3.90;41.50
10294;DHT22;5192;50.328;7.610;2023-01-16T11:11:49;3.90;43.30
10294;DHT22;5192;50.328;7.610;2023-01-16T11:14:41;3.90;41.20
10294;DHT22;5192;50.328;7.610;2023-01-16T11:17:50;4.00;40.30
10294;DHT22;5192;50.328;7.610;2023-01-16T11:20:38;4.00;40.80
10294;DHT22;5192;50.328;7.610;2023-01-16T11:23:24;4.10;40.90
10294;DHT22;5192;50.328;7.610;2023-01-16T11:25:54;4.00;43.00
10294;DHT22;5192;50.328;7.610;2023-01-16T11:28:29;4.00;42.90
10294;DHT22;5192;50.328;7.610;2023-01-16T11:30:59;4.10;45.80
10294;DHT22;5192;50.328;7.610;2023-01-16T11:33:37;4.00;46.00
10294;DHT22;5192;50.328;7.610;2023-01-16T11:36:06;4.00;48.30
10294;DHT22;5192;50.328;7.610;2023-01-16T11:38:38;4.00;51.50
10294;DHT22;5192;50.328;7.610;2023-01-16T11:41:10;4.00;52.70
10294;DHT22;5192;50.328;7.610;2023-01-16T11:43:37;4.00;56.20
10294;DHT22;5192;50.328;7.610;2023-01-16T11:46:38;4.00;54.40
10294;DHT22;5192;50.328;7.610;2023-01-16T11:49:18;4.10;59.60
10294;DHT22;5192;50.328;7.610;2023-01-16T11:51:49;4.10;56.00
10294;DHT22;5192;50.328;7.610;2023-01-16T11:54:27;4.20;57.50
10294;DHT22;5192;50.328;7.610;2023-01-16T12:00:19;4.20;54.80
10294;DHT22;5192;50.328;7.610;2023-01-16T12:06:23;4.30;51.90
10294;DHT22;5192;50.328;7.610;2023-01-16T12:09:25;4.30;49.10
10294;DHT22;5192;50.328;7.610;2023-01-16T12:12:35;4.20;48.10
10294;DHT22;5192;50.328;7.610;2023-01-16T12:15:53;4.30;49.60
10294;DHT22;5192;50.328;7.610;2023-01-16T12:18:47;4.30;49.10
10294;DHT22;5192;50.328;7.610;2023-01-16T12:21:49;4.40;51.80
10294;DHT22;5192;50.328;7.610;2023-01-16T12:33:35;4.70;44.20
10294;DHT22;5192;50.328;7.610;2023-01-16T12:36:28;4.80;44.90
10294;DHT22;5192;50.328;7.610;2023-01-16T12:39:28;4.80;45.20
10294;DHT22;5192;50.328;7.610;2023-01-16T12:42:43;4.70;43.70
10294;DHT22;5192;50.328;7.610;2023-01-16T12:45:40;4.80;48.40
10294;DHT22;5192;50.328;7.610;2023-01-16T12:51:35;4.70;48.40
10294;DHT22;5192;50.328;7.610;2023-01-16T13:00:04;4.80;46.70
10294;DHT22;5192;50.328;7.610;2023-01-16T13:05:39;4.80;46.40
10294;DHT22;5192;50.328;7.610;2023-01-16T13:11:21;4.80;44.20
10294;DHT22;5192;50.328;7.610;2023-01-16T13:14:12;4.80;46.40
10294;DHT22;5192;50.328;7.610;2023-01-16T13:19:38;4.70;44.90
10294;DHT22;5192;50.328;7.610;2023-01-16T13:22:29;4.70;45.10
10294;DHT22;5192;50.328;7.610;2023-01-16T13:25:15;4.70;46.20
10294;DHT22;5192;50.328;7.610;2023-01-16T13:27:51;4.70;48.70
10294;DHT22;5192;50.328;7.610;2023-01-16T13:30:23;4.60;47.20
10294;DHT22;5192;50.328;7.610;2023-01-16T13:33:19;4.70;47.70
10294;DHT22;5192;50.328;7.610;2023-01-16T13:41:46;4.70;49.70
10294;DHT22;5192;50.328;7.610;2023-01-16T13:44:39;4.70;49.80
10294;DHT22;5192;50.328;7.610;2023-01-16T13:47:32;4.70;49.90
10294;DHT22;5192;50.328;7.610;2023-01-16T13:53:08;4.60;49.30
10294;DHT22;5192;50.328;7.610;2023-01-16T13:55:37;4.60;48.20
10294;DHT22;5192;50.328;7.610;2023-01-16T13:58:26;4.70;47.60
10294;DHT22;5192;50.328;7.610;2023-01-16T14:06:48;4.80;44.70
10294;DHT22;5192;50.328;7.610;2023-01-16T14:13:32;4.80;46.60
10294;DHT22;5192;50.328;7.610;2023-01-16T14:19:25;4.80;47.10
10294;DHT22;5192;50.328;7.610;2023-01-16T14:22:03;4.70;47.80
10294;DHT22;5192;50.328;7.610;2023-01-16T14:24:48;4.60;46.30
10294;DHT22;5192;50.328;7.610;2023-01-16T14:27:28;4.60;47.30
10294;DHT22;5192;50.328;7.610;2023-01-16T14:30:26;4.60;46.40
10294;DHT22;5192;50.328;7.610;2023-01-16T14:32:57;4.60;46.50
10294;DHT22;5192;50.328;7.610;2023-01-16T14:36:12;4.60;45.00
10294;DHT22;5192;50.328;7.610;2023-01-16T14:38:26;4.60;46.10
10294;DHT22;5192;50.328;7.610;2023-01-16T14:41:14;4.70;47.00
10294;DHT22;5192;50.328;7.610;2023-01-16T14:44:26;4.80;46.70
10294;DHT22;5192;50.328;7.610;2023-01-16T14:50:51;4.80;45.30
10294;DHT22;5192;50.328;7.610;2023-01-16T14:53:39;4.80;48.10
10294;DHT22;5192;50.328;7.610;2023-01-16T14:56:46;4.90;47.30
10294;DHT22;5192;50.328;7.610;2023-01-16T15:01:53;4.80;51.00
10294;DHT22;5192;50.328;7.610;2023-01-16T15:10:43;4.80;55.30
10294;DHT22;5192;50.328;7.610;2023-01-16T15:13:21;4.80;57.60
10294;DHT22;5192;50.328;7.610;2023-01-16T15:15:56;4.80;57.30
10294;DHT22;5192;50.328;7.610;2023-01-16T15:18:26;4.70;59.20
10294;DHT22;5192;50.328;7.610;2023-01-16T15:21:25;4.70;56.40
10294;DHT22;5192;50.328;7.610;2023-01-16T15:24:19;4.50;57.00
10294;DHT22;5192;50.328;7.610;2023-01-16T15:27:20;4.70;57.70
10294;DHT22;5192;50.328;7.610;2023-01-16T15:30:06;4.70;58.40
10294;DHT22;5192;50.328;7.610;2023-01-16T15:32:58;4.60;59.80
10294;DHT22;5192;50.328;7.610;2023-01-16T15:35:56;4.60;60.00
10294;DHT22;5192;50.328;7.610;2023-01-16T15:38:35;4.50;60.10
10294;DHT22;5192;50.328;7.610;2023-01-16T15:41:02;4.50;61.90
10294;DHT22;5192;50.328;7.610;2023-01-16T15:43:29;4.50;64.00
10294;DHT22;5192;50.328;7.610;2023-01-16T15:46:46;4.50;63.40
10294;DHT22;5192;50.328;7.610;2023-01-16T15:49:44;4.40;62.90
10294;DHT22;5192;50.328;7.610;2023-01-16T15:52:16;4.40;65.70
10294;DHT22;5192;50.328;7.610;2023-01-16T15:54:43;4.30;67.40
10294;DHT22;5192;50.328;7.610;2023-01-16T15:57:20;4.30;66.90
10294;DHT22;5192;50.328;7.610;2023-01-16T15:59:55;4.30;66.30
10294;DHT22;5192;50.328;7.610;2023-01-16T16:02:24;4.20;66.70
10294;DHT22;5192;50.328;7.610;2023-01-16T16:04:55;4.20;66.70
10294;DHT22;5192;50.328;7.610;2023-01-16T16:07:24;4.10;68.10
10294;DHT22;5192;50.328;7.610;2023-01-16T16:09:54;4.10;68.10
10294;DHT22;5192;50.328;7.610;2023-01-16T16:12:23;4.00;68.60
10294;DHT22;5192;50.328;7.610;2023-01-16T16:15:23;4.10;69.10
10294;DHT22;5192;50.328;7.610;2023-01-16T16:18:19;4.00;67.40
10294;DHT22;5192;50.328;7.610;2023-01-16T16:20:51;3.90;64.30
10294;DHT22;5192;50.328;7.610;2023-01-16T16:23:22;3.90;66.30
10294;DHT22;5192;50.328;7.610;2023-01-16T16:26:04;3.90;65.40
10294;DHT22;5192;50.328;7.610;2023-01-16T16:31:31;3.90;62.60
10294;DHT22;5192;50.328;7.610;2023-01-16T16:34:03;4.00;61.10
10294;DHT22;5192;50.328;7.610;2023-01-16T16:36:48;3.90;62.50
10294;DHT22;5192;50.328;7.610;2023-01-16T16:42:00;4.00;63.50
10294;DHT22;5192;50.328;7.610;2023-01-16T16:45:32;3.80;64.10
10294;DHT22;5192;50.328;7.610;2023-01-16T16:50:39;3.80;64.20
10294;DHT22;5192;50.328;7.610;2023-01-16T16:53:27;3.80;61.70
10294;DHT22;5192;50.328;7.610;2023-01-16T16:58:51;3.90;62.90
10294;DHT22;5192;50.328;7.610;2023-01-16T17:01:21;3.80;63.80
10294;DHT22;5192;50.328;7.610;2023-01-16T17:03:56;3.80;62.80
10294;DHT22;5192;50.328;7.610;2023-01-16T17:06:34;3.90;58.30
10294;DHT22;5192;50.328;7.610;2023-01-16T17:09:02;3.90;57.80
10294;DHT22;5192;50.328;7.610;2023-01-16T17:11:30;3.90;60.00
10294;DHT22;5192;50.328;7.610;2023-01-16T17:13:56;3.90;59.90
10294;DHT22;5192;50.328;7.610;2023-01-16T17:16:27;3.90;57.30
10294;DHT22;5192;50.328;7.610;2023-01-16T17:19:13;3.90;57.30
10294;DHT22;5192;50.328;7.610;2023-01-16T17:21:45;3.80;55.60
10294;DHT22;5192;50.328;7.610;2023-01-16T17:24:16;3.80;56.30
10294;DHT22;5192;50.328;7.610;2023-01-16T17:26:44;3.80;57.60
10294;DHT22;5192;50.328;7.610;2023-01-16T17:29:12;3.80;59.90
10294;DHT22;5192;50.328;7.610;2023-01-16T17:31:39;3.80;60.70
10294;DHT22;5192;50.328;7.610;2023-01-16T17:34:13;3.70;60.20
10294;DHT22;5192;50.328;7.610;2023-01-16T17:36:42;3.70;59.10
10294;DHT22;5192;50.328;7.610;2023-01-16T17:39:09;3.70;59.40
10294;DHT22;5192;50.328;7.610;2023-01-16T17:41:38;3.70;60.70
10294;DHT22;5192;50.328;7.610;2023-01-16T17:44:22;3.70;57.50
10294;DHT22;5192;50.328;7.610;2023-01-16T17:47:09;3.80;57.40
10294;DHT22;5192;50.328;7.610;2023-01-16T17:49:35;3.80;56.60
10294;DHT22;5192;50.328;7.610;2023-01-16T17:52:21;3.90;54.70
10294;DHT22;5192;50.328;7.610;2023-01-16T17:54:48;3.90;53.70
10294;DHT22;5192;50.328;7.610;2023-01-16T17:57:34;3.90;53.50
10294;DHT22;5192;50.328;7.610;2023-01-16T18:00:06;4.10;49.90
10294;DHT22;5192;50.328;7.610;2023-01-16T18:02:44;4.00;48.90
10294;DHT22;5192;50.328;7.610;2023-01-16T18:05:22;4.00;47.40
10294;DHT22;5192;50.328;7.610;2023-01-16T18:07:49;4.00;48.90
10294;DHT22;5192;50.328;7.610;2023-01-16T18:10:15;4.00;49.20
10294;DHT22;5192;50.328;7.610;2023-01-16T18:12:43;4.00;49.70
10294;DHT22;5192;50.328;7.610;2023-01-16T18:15:28;4.00;51.90
10294;DHT22;5192;50.328;7.610;2023-01-16T18:18:15;4.00;46.80
10294;DHT22;5192;50.328;7.610;2023-01-16T18:20:43;4.00;47.40
10294;DHT22;5192;50.328;7.610;2023-01-16T18:23:08;4.10;49.80
10294;DHT22;5192;50.328;7.610;2023-01-16T18:25:45;4.10;49.40
10294;DHT22;5192;50.328;7.610;2023-01-16T18:28:12;4.10;48.90
10294;DHT22;5192;50.328;7.610;2023-01-16T18:30:40;4.00;48.80
10294;DHT22;5192;50.328;7.610;2023-01-16T18:33:07;4.10;49.60
10294;DHT22;5192;50.328;7.610;2023-01-16T18:35:35;4.00;48.60
10294;DHT22;5192;50.328;7.610;2023-01-16T18:38:03;4.00;46.50
10294;DHT22;5192;50.328;7.610;2023-01-16T18:41:03;4.10;45.30
10294;DHT22;5192;50.328;7.610;2023-01-16T18:43:49;4.00;46.70
10294;DHT22;5192;50.328;7.610;2023-01-16T18:46:35;4.00;46.50
10294;DHT22;5192;50.328;7.610;2023-01-16T18:49:20;4.10;44.30
10294;DHT22;5192;50.328;7.610;2023-01-16T18:52:16;4.10;44.60
10294;DHT22;5192;50.328;7.610;2023-01-16T18:55:03;4.20;40.30
10294;DHT22;5192;50.328;7.610;2023-01-16T18:57:49;4.10;41.10
10294;DHT22;5192;50.328;7.610;2023-01-16T19:00:35;4.10;43.70
10294;DHT22;5192;50.328;7.610;2023-01-16T19:03:21;4.10;42.20
10294;DHT22;5192;50.328;7.610;2023-01-16T19:05:47;4.10;42.30
10294;DHT22;5192;50.328;7.610;2023-01-16T19:08:14;4.10;38.80
10294;DHT22;5192;50.328;7.610;2023-01-16T19:10:54;4.20;38.30
10294;DHT22;5192;50.328;7.610;2023-01-16T19:13:22;4.20;36.70
10294;DHT22;5192;50.328;7.610;2023-01-16T19:16:04;4.10;38.20
10294;DHT22;5192;50.328;7.610;2023-01-16T19:18:50;4.30;37.60